sensor_id;sensor_type;location;lat;lon;timestamp;pressure;altitude;pressure_sealevel;temperature;humidity
68871;BME280;55906;52.278;6.808;2022-11-20T00:00:47;101346.31;;;-1.28;72.54
68871;BME280;55906;52.278;6.808;2022-11-20T00:03:13;101345.00;;;-1.33;72.70
68871;BME280;55906;52.278;6.808;2022-11-20T00:05:40;101350.06;;;-1.35;72.53
68871;BME280;55906;52.278;6.808;2022-11-20T00:08:07;101338.59;;;-1.38;73.16
68871;BME280;55906;52.278;6.808;2022-11-20T00:10:35;101337.56;;;-1.40;72.87
68871;BME280;55906;52.278;6.808;2022-11-20T00:13:02;101343.38;;;-1.43;72.92
68871;BME280;55906;52.278;6.808;2022-11-20T00:15:29;101344.16;;;-1.44;73.14
68871;BME280;55906;52.278;6.808;2022-11-20T00:17:57;101345.94;;;-1.43;72.61
68871;BME280;55906;52.278;6.808;2022-11-20T00:20:23;101337.97;;;-1.46;73.29
68871;BME280;55906;52.278;6.808;2022-11-20T00:22:50;101328.44;;;-1.47;73.51
68871;BME280;55906;52.278;6.808;2022-11-20T00:25:17;101334.59;;;-1.45;73.44
68871;BME280;55906;52.278;6.808;2022-11-20T00:27:43;101335.50;;;-1.44;73.63
68871;BME280;55906;52.278;6.808;2022-11-20T00:30:10;101333.72;;;-1.45;73.78
68871;BME280;55906;52.278;6.808;2022-11-20T00:32:37;101327.66;;;-1.46;73.70
68871;BME280;55906;52.278;6.808;2022-11-20T00:35:06;101327.66;;;-1.46;73.09
68871;BME280;55906;52.278;6.808;2022-11-20T00:37:32;101326.50;;;-1.49;72.95
68871;BME280;55906;52.278;6.808;2022-11-20T00:40:00;101320.19;;;-1.53;73.87
68871;BME280;55906;52.278;6.808;2022-11-20T00:42:27;101304.72;;;-1.53;74.04
68871;BME280;55906;52.278;6.808;2022-11-20T00:44:54;101305.38;;;-1.55;73.72
68871;BME280;55906;52.278;6.808;2022-11-20T00:47:20;101312.09;;;-1.57;73.75
68871;BME280;55906;52.278;6.808;2022-11-20T00:49:47;101315.31;;;-1.60;73.45
68871;BME280;55906;52.278;6.808;2022-11-20T00:52:15;101312.50;;;-1.63;73.46
68871;BME280;55906;52.278;6.808;2022-11-20T00:54:41;101320.09;;;-1.65;73.32
68871;BME280;55906;52.278;6.808;2022-11-20T00:57:08;101308.88;;;-1.65;73.90
68871;BME280;55906;52.278;6.808;2022-11-20T00:59:34;101307.09;;;-1.66;73.56
68871;BME280;55906;52.278;6.808;2022-11-20T01:02:01;101306.31;;;-1.65;74.00
68871;BME280;55906;52.278;6.808;2022-11-20T01:04:28;101302.06;;;-1.65;73.66
68871;BME280;55906;52.278;6.808;2022-11-20T01:06:54;101307.75;;;-1.69;73.90
68871;BME280;55906;52.278;6.808;2022-11-20T01:09:22;101301.69;;;-1.69;73.64
68871;BME280;55906;52.278;6.808;2022-11-20T01:11:49;101296.66;;;-1.68;73.51
68871;BME280;55906;52.278;6.808;2022-11-20T01:14:17;101285.97;;;-1.72;73.83
68871;BME280;55906;52.278;6.808;2022-11-20T01:16:46;101290.34;;;-1.71;74.17
68871;BME280;55906;52.278;6.808;2022-11-20T01:19:15;101288.53;;;-1.72;74.24
68871;BME280;55906;52.278;6.808;2022-11-20T01:21:43;101283.38;;;-1.72;73.67
68871;BME280;55906;52.278;6.808;2022-11-20T01:24:12;101274.63;;;-1.74;72.46
68871;BME280;55906;52.278;6.808;2022-11-20T01:26:42;101271.81;;;-1.77;74.95
68871;BME280;55906;52.278;6.808;2022-11-20T01:29:13;101273.59;;;-1.76;75.15
68871;BME280;55906;52.278;6.808;2022-11-20T01:31:40;101275.28;;;-1.77;74.05
68871;BME280;55906;52.278;6.808;2022-11-20T01:34:11;101270.91;;;-1.78;74.10
68871;BME280;55906;52.278;6.808;2022-11-20T01:36:38;101277.59;;;-1.80;74.01
68871;BME280;55906;52.278;6.808;2022-11-20T01:39:07;101280.97;;;-1.81;72.82
68871;BME280;55906;52.278;6.808;2022-11-20T01:41:34;101278.00;;;-1.85;74.80
68871;BME280;55906;52.278;6.808;2022-11-20T01:44:22;101278.25;;;-1.82;75.11
68871;BME280;55906;52.278;6.808;2022-11-20T01:46:54;101274.78;;;-1.83;74.65
68871;BME280;55906;52.278;6.808;2022-11-20T01:49:24;101283.28;;;-1.84;74.67
68871;BME280;55906;52.278;6.808;2022-11-20T01:51:56;101274.66;;;-1.84;74.87
68871;BME280;55906;52.278;6.808;2022-11-20T01:54:28;101271.06;;;-1.86;74.44
68871;BME280;55906;52.278;6.808;2022-11-20T01:56:59;101269.38;;;-1.86;75.11
68871;BME280;55906;52.278;6.808;2022-11-20T01:59:29;101269.50;;;-1.84;75.09
68871;BME280;55906;52.278;6.808;2022-11-20T02:01:56;101268.72;;;-1.83;74.27
68871;BME280;55906;52.278;6.808;2022-11-20T02:04:24;101266.16;;;-1.83;74.87
68871;BME280;55906;52.278;6.808;2022-11-20T02:06:55;101269.50;;;-1.84;74.96
68871;BME280;55906;52.278;6.808;2022-11-20T02:09:24;101268.59;;;-1.85;75.15
68871;BME280;55906;52.278;6.808;2022-11-20T02:11:51;101275.44;;;-1.85;74.57
68871;BME280;55906;52.278;6.808;2022-11-20T02:14:18;101269.50;;;-1.84;74.78
68871;BME280;55906;52.278;6.808;2022-11-20T02:16:46;101265.13;;;-1.85;74.84
68871;BME280;55906;52.278;6.808;2022-11-20T02:19:22;101257.38;;;-1.85;74.46
68871;BME280;55906;52.278;6.808;2022-11-20T02:21:56;101258.03;;;-1.88;74.15
68871;BME280;55906;52.278;6.808;2022-11-20T02:24:25;101250.84;;;-1.92;74.29
68871;BME280;55906;52.278;6.808;2022-11-20T02:26:54;101244.28;;;-1.99;74.04
68871;BME280;55906;52.278;6.808;2022-11-20T02:29:25;101243.78;;;-2.05;73.66
68871;BME280;55906;52.278;6.808;2022-11-20T02:31:53;101244.19;;;-2.10;74.17
68871;BME280;55906;52.278;6.808;2022-11-20T02:34:21;101247.41;;;-2.13;74.62
68871;BME280;55906;52.278;6.808;2022-11-20T02:36:48;101254.91;;;-2.16;74.55
68871;BME280;55906;52.278;6.808;2022-11-20T02:39:16;101257.50;;;-2.26;74.27
68871;BME280;55906;52.278;6.808;2022-11-20T02:41:44;101250.03;;;-2.33;74.96
68871;BME280;55906;52.278;6.808;2022-11-20T02:44:11;101257.50;;;-2.36;74.90
68871;BME280;55906;52.278;6.808;2022-11-20T02:46:37;101253.78;;;-2.40;75.43
68871;BME280;55906;52.278;6.808;2022-11-20T02:49:04;101256.59;;;-2.37;75.48
68871;BME280;55906;52.278;6.808;2022-11-20T02:51:32;101249.78;;;-2.36;75.32
68871;BME280;55906;52.278;6.808;2022-11-20T02:53:59;101248.88;;;-2.37;75.35
68871;BME280;55906;52.278;6.808;2022-11-20T02:56:25;101247.97;;;-2.37;74.92
68871;BME280;55906;52.278;6.808;2022-11-20T02:58:53;101241.28;;;-2.35;74.84
68871;BME280;55906;52.278;6.808;2022-11-20T03:01:20;101231.75;;;-2.36;75.31
68871;BME280;55906;52.278;6.808;2022-11-20T03:03:47;101224.91;;;-2.36;75.21
68871;BME280;55906;52.278;6.808;2022-11-20T03:06:14;101232.66;;;-2.36;74.99
68871;BME280;55906;52.278;6.808;2022-11-20T03:08:41;101229.94;;;-2.37;75.70
68871;BME280;55906;52.278;6.808;2022-11-20T03:11:09;101237.66;;;-2.37;75.31
68871;BME280;55906;52.278;6.808;2022-11-20T03:13:36;101223.13;;;-2.37;75.63
68871;BME280;55906;52.278;6.808;2022-11-20T03:16:12;101224.16;;;-2.35;75.28
68871;BME280;55906;52.278;6.808;2022-11-20T03:18:39;101225.81;;;-2.35;74.80
68871;BME280;55906;52.278;6.808;2022-11-20T03:21:07;101223.75;;;-2.39;74.42
68871;BME280;55906;52.278;6.808;2022-11-20T03:23:34;101220.16;;;-2.41;74.24
68871;BME280;55906;52.278;6.808;2022-11-20T03:26:09;101221.72;;;-2.43;75.46
68871;BME280;55906;52.278;6.808;2022-11-20T03:28:36;101235.38;;;-2.44;74.66
68871;BME280;55906;52.278;6.808;2022-11-20T03:31:07;101238.47;;;-2.48;74.52
68871;BME280;55906;52.278;6.808;2022-11-20T03:33:35;101231.25;;;-2.52;74.14
68871;BME280;55906;52.278;6.808;2022-11-20T03:36:03;101238.59;;;-2.57;74.76
68871;BME280;55906;52.278;6.808;2022-11-20T03:38:30;101239.25;;;-2.60;74.51
68871;BME280;55906;52.278;6.808;2022-11-20T03:41:01;101238.94;;;-2.63;75.23
68871;BME280;55906;52.278;6.808;2022-11-20T03:43:28;101229.16;;;-2.67;75.41
68871;BME280;55906;52.278;6.808;2022-11-20T03:45:55;101225.94;;;-2.64;75.68
68871;BME280;55906;52.278;6.808;2022-11-20T03:48:22;101232.91;;;-2.63;75.26
68871;BME280;55906;52.278;6.808;2022-11-20T03:50:50;101232.91;;;-2.63;75.15
68871;BME280;55906;52.278;6.808;2022-11-20T03:53:17;101235.59;;;-2.62;75.39
68871;BME280;55906;52.278;6.808;2022-11-20T03:55:43;101238.19;;;-2.62;75.61
68871;BME280;55906;52.278;6.808;2022-11-20T03:58:10;101232.13;;;-2.62;74.81
68871;BME280;55906;52.278;6.808;2022-11-20T04:00:38;101228.66;;;-2.63;74.91
68871;BME280;55906;52.278;6.808;2022-11-20T04:03:05;101221.97;;;-2.61;75.37
68871;BME280;55906;52.278;6.808;2022-11-20T04:05:32;101216.97;;;-2.59;75.74
68871;BME280;55906;52.278;6.808;2022-11-20T04:08:00;101206.66;;;-2.59;75.70
68871;BME280;55906;52.278;6.808;2022-11-20T04:10:27;101209.38;;;-2.58;75.36
68871;BME280;55906;52.278;6.808;2022-11-20T04:12:54;101212.72;;;-2.59;74.83
68871;BME280;55906;52.278;6.808;2022-11-20T04:15:20;101202.00;;;-2.63;74.78
68871;BME280;55906;52.278;6.808;2022-11-20T04:17:47;101197.50;;;-2.66;74.87
68871;BME280;55906;52.278;6.808;2022-11-20T04:20:14;101200.72;;;-2.68;74.81
68871;BME280;55906;52.278;6.808;2022-11-20T04:22:40;101200.59;;;-2.70;75.40
68871;BME280;55906;52.278;6.808;2022-11-20T04:25:09;101196.09;;;-2.72;75.21
68871;BME280;55906;52.278;6.808;2022-11-20T04:27:35;101187.22;;;-2.76;74.88
68871;BME280;55906;52.278;6.808;2022-11-20T04:30:02;101182.84;;;-2.77;75.17
68871;BME280;55906;52.278;6.808;2022-11-20T04:32:29;101182.59;;;-2.80;75.41
68871;BME280;55906;52.278;6.808;2022-11-20T04:34:55;101185.28;;;-2.78;75.15
68871;BME280;55906;52.278;6.808;2022-11-20T04:37:22;101183.50;;;-2.79;75.10
68871;BME280;55906;52.278;6.808;2022-11-20T04:39:48;101178.97;;;-2.82;74.63
68871;BME280;55906;52.278;6.808;2022-11-20T04:42:16;101175.63;;;-2.81;74.95
68871;BME280;55906;52.278;6.808;2022-11-20T04:44:55;101178.97;;;-2.82;74.67
68871;BME280;55906;52.278;6.808;2022-11-20T04:47:22;101188.38;;;-2.82;74.46
68871;BME280;55906;52.278;6.808;2022-11-20T04:49:49;101183.88;;;-2.85;75.04
68871;BME280;55906;52.278;6.808;2022-11-20T04:52:15;101188.91;;;-2.86;75.08
68871;BME280;55906;52.278;6.808;2022-11-20T04:54:42;101186.19;;;-2.88;74.53
68871;BME280;55906;52.278;6.808;2022-11-20T04:57:09;101180.28;;;-2.87;74.85
68871;BME280;55906;52.278;6.808;2022-11-20T04:59:36;101180.53;;;-2.84;74.72
68871;BME280;55906;52.278;6.808;2022-11-20T05:02:03;101177.97;;;-2.84;74.86
68871;BME280;55906;52.278;6.808;2022-11-20T05:04:30;101167.66;;;-2.84;74.98
68871;BME280;55906;52.278;6.808;2022-11-20T05:06:56;101171.00;;;-2.85;75.32
68871;BME280;55906;52.278;6.808;2022-11-20T05:09:23;101178.72;;;-2.85;74.87
68871;BME280;55906;52.278;6.808;2022-11-20T05:11:49;101182.34;;;-2.83;75.23
68871;BME280;55906;52.278;6.808;2022-11-20T05:14:16;101167.78;;;-2.82;75.54
68871;BME280;55906;52.278;6.808;2022-11-20T05:16:44;101164.44;;;-2.81;75.69
68871;BME280;55906;52.278;6.808;2022-11-20T05:19:10;101165.34;;;-2.81;75.05
68871;BME280;55906;52.278;6.808;2022-11-20T05:21:37;101173.06;;;-2.81;74.99
68871;BME280;55906;52.278;6.808;2022-11-20T05:24:04;101174.59;;;-2.83;74.78
68871;BME280;55906;52.278;6.808;2022-11-20T05:26:31;101164.97;;;-2.85;75.04
68871;BME280;55906;52.278;6.808;2022-11-20T05:28:57;101166.88;;;-2.83;75.79
68871;BME280;55906;52.278;6.808;2022-11-20T05:31:25;101163.28;;;-2.85;75.67
68871;BME280;55906;52.278;6.808;2022-11-20T05:33:53;101160.84;;;-2.83;75.17
68871;BME280;55906;52.278;6.808;2022-11-20T05:36:19;101156.34;;;-2.86;76.09
68871;BME280;55906;52.278;6.808;2022-11-20T05:38:46;101152.59;;;-2.90;75.65
68871;BME280;55906;52.278;6.808;2022-11-20T05:41:14;101148.50;;;-2.87;75.12
68871;BME280;55906;52.278;6.808;2022-11-20T05:43:42;101150.16;;;-2.88;76.35
68871;BME280;55906;52.278;6.808;2022-11-20T05:46:11;101145.78;;;-2.89;75.42
68871;BME280;55906;52.278;6.808;2022-11-20T05:48:39;101140.66;;;-2.89;74.84
68871;BME280;55906;52.278;6.808;2022-11-20T05:51:10;101140.66;;;-2.89;75.23
68871;BME280;55906;52.278;6.808;2022-11-20T05:53:37;101144.75;;;-2.91;76.38
68871;BME280;55906;52.278;6.808;2022-11-20T05:56:05;101148.38;;;-2.89;76.46
68871;BME280;55906;52.278;6.808;2022-11-20T05:58:32;101151.06;;;-2.87;77.16
68871;BME280;55906;52.278;6.808;2022-11-20T06:01:05;101152.34;;;-2.82;76.43
68871;BME280;55906;52.278;6.808;2022-11-20T06:03:32;101160.19;;;-2.81;76.47
68871;BME280;55906;52.278;6.808;2022-11-20T06:05:58;101160.31;;;-2.79;75.96
68871;BME280;55906;52.278;6.808;2022-11-20T06:08:26;101175.00;;;-2.78;76.24
68871;BME280;55906;52.278;6.808;2022-11-20T06:10:53;101171.38;;;-2.80;75.90
68871;BME280;55906;52.278;6.808;2022-11-20T06:13:20;101172.94;;;-2.82;75.03
68871;BME280;55906;52.278;6.808;2022-11-20T06:15:48;101169.34;;;-2.84;75.86
68871;BME280;55906;52.278;6.808;2022-11-20T06:18:15;101164.31;;;-2.83;76.47
68871;BME280;55906;52.278;6.808;2022-11-20T06:20:41;101170.50;;;-2.81;76.85
68871;BME280;55906;52.278;6.808;2022-11-20T06:23:08;101160.19;;;-2.81;76.65
68871;BME280;55906;52.278;6.808;2022-11-20T06:25:38;101167.28;;;-2.78;76.99
68871;BME280;55906;52.278;6.808;2022-11-20T06:28:05;101163.03;;;-2.78;76.54
68871;BME280;55906;52.278;6.808;2022-11-20T06:30:32;101168.28;;;-2.76;76.82
68871;BME280;55906;52.278;6.808;2022-11-20T06:32:59;101159.03;;;-2.74;76.92
68871;BME280;55906;52.278;6.808;2022-11-20T06:35:25;101160.69;;;-2.75;76.56
68871;BME280;55906;52.278;6.808;2022-11-20T06:37:52;101158.91;;;-2.76;76.70
68871;BME280;55906;52.278;6.808;2022-11-20T06:40:18;101167.28;;;-2.78;76.07
68871;BME280;55906;52.278;6.808;2022-11-20T06:42:46;101168.03;;;-2.79;76.06
68871;BME280;55906;52.278;6.808;2022-11-20T06:45:13;101176.41;;;-2.82;75.88
68871;BME280;55906;52.278;6.808;2022-11-20T06:47:40;101178.09;;;-2.82;75.89
68871;BME280;55906;52.278;6.808;2022-11-20T06:50:07;101172.94;;;-2.82;76.09
68871;BME280;55906;52.278;6.808;2022-11-20T06:52:33;101171.91;;;-2.84;76.22
68871;BME280;55906;52.278;6.808;2022-11-20T06:55:00;101170.25;;;-2.84;75.74
68871;BME280;55906;52.278;6.808;2022-11-20T06:57:26;101161.75;;;-2.83;75.70
68871;BME280;55906;52.278;6.808;2022-11-20T06:59:55;101166.88;;;-2.83;76.18
68871;BME280;55906;52.278;6.808;2022-11-20T07:02:21;101163.53;;;-2.82;76.29
68871;BME280;55906;52.278;6.808;2022-11-20T07:04:48;101167.78;;;-2.82;75.73
68871;BME280;55906;52.278;6.808;2022-11-20T07:07:14;101165.34;;;-2.81;76.33
68871;BME280;55906;52.278;6.808;2022-11-20T07:09:41;101168.94;;;-2.79;75.87
68871;BME280;55906;52.278;6.808;2022-11-20T07:12:08;101174.09;;;-2.79;75.74
68871;BME280;55906;52.278;6.808;2022-11-20T07:14:34;101165.47;;;-2.79;75.83
68871;BME280;55906;52.278;6.808;2022-11-20T07:17:03;101164.81;;;-2.77;76.77
68871;BME280;55906;52.278;6.808;2022-11-20T07:19:29;101167.78;;;-2.72;75.56
68871;BME280;55906;52.278;6.808;2022-11-20T07:21:56;101167.38;;;-2.67;76.92
68871;BME280;55906;52.278;6.808;2022-11-20T07:24:22;101166.59;;;-2.45;77.17
68871;BME280;55906;52.278;6.808;2022-11-20T07:26:49;101167.78;;;-2.10;76.68
68871;BME280;55906;52.278;6.808;2022-11-20T07:29:16;101156.63;;;-1.67;74.66
68871;BME280;55906;52.278;6.808;2022-11-20T07:31:43;101166.06;;;-1.23;73.89
68871;BME280;55906;52.278;6.808;2022-11-20T07:34:11;101166.84;;;-0.79;72.85
68871;BME280;55906;52.278;6.808;2022-11-20T07:36:37;101173.19;;;-0.41;71.69
68871;BME280;55906;52.278;6.808;2022-11-20T07:39:04;101167.34;;;-0.15;70.34
68871;BME280;55906;52.278;6.808;2022-11-20T07:41:31;101165.09;;;-0.10;71.47
68871;BME280;55906;52.278;6.808;2022-11-20T07:43:57;101158.13;;;0.12;70.45
68871;BME280;55906;52.278;6.808;2022-11-20T07:46:24;101155.44;;;0.11;69.96
68871;BME280;55906;52.278;6.808;2022-11-20T07:48:51;101143.16;;;0.20;70.03
68871;BME280;55906;52.278;6.808;2022-11-20T07:51:18;101139.81;;;0.46;69.22
68871;BME280;55906;52.278;6.808;2022-11-20T07:53:45;101130.88;;;0.29;69.09
68871;BME280;55906;52.278;6.808;2022-11-20T07:56:12;101133.72;;;0.57;69.00
68871;BME280;55906;52.278;6.808;2022-11-20T07:58:39;101135.00;;;1.13;67.48
68871;BME280;55906;52.278;6.808;2022-11-20T08:01:07;101141.25;;;1.42;66.76
68871;BME280;55906;52.278;6.808;2022-11-20T08:03:34;101142.47;;;1.73;66.64
68871;BME280;55906;52.278;6.808;2022-11-20T08:06:03;101140.84;;;2.02;66.48
68871;BME280;55906;52.278;6.808;2022-11-20T08:08:31;101134.34;;;2.21;64.18
68871;BME280;55906;52.278;6.808;2022-11-20T08:10:57;101145.69;;;2.37;64.51
68871;BME280;55906;52.278;6.808;2022-11-20T08:13:45;101131.44;;;2.58;62.81
68871;BME280;55906;52.278;6.808;2022-11-20T08:16:29;101125.84;;;2.65;62.58
68871;BME280;55906;52.278;6.808;2022-11-20T08:18:56;101125.47;;;3.02;62.60
68871;BME280;55906;52.278;6.808;2022-11-20T08:21:22;101128.63;;;3.11;60.77
68871;BME280;55906;52.278;6.808;2022-11-20T08:23:50;101122.09;;;3.47;61.36
68871;BME280;55906;52.278;6.808;2022-11-20T08:26:17;101117.41;;;3.56;59.91
68871;BME280;55906;52.278;6.808;2022-11-20T08:28:44;101120.56;;;3.50;57.77
68871;BME280;55906;52.278;6.808;2022-11-20T08:31:11;101123.34;;;3.39;57.92
68871;BME280;55906;52.278;6.808;2022-11-20T08:33:37;101116.69;;;3.73;57.83
68871;BME280;55906;52.278;6.808;2022-11-20T08:36:05;101119.13;;;4.16;57.86
68871;BME280;55906;52.278;6.808;2022-11-20T08:38:32;101117.31;;;4.15;55.88
68871;BME280;55906;52.278;6.808;2022-11-20T08:41:02;101123.19;;;4.27;55.90
68871;BME280;55906;52.278;6.808;2022-11-20T08:43:47;101124.53;;;4.84;56.00
68871;BME280;55906;52.278;6.808;2022-11-20T08:46:13;101118.91;;;4.93;54.41
68871;BME280;55906;52.278;6.808;2022-11-20T08:48:41;101117.56;;;5.17;55.72
68871;BME280;55906;52.278;6.808;2022-11-20T08:51:08;101118.22;;;5.29;53.47
68871;BME280;55906;52.278;6.808;2022-11-20T08:53:34;101118.34;;;5.66;54.09
68871;BME280;55906;52.278;6.808;2022-11-20T08:56:03;101113.56;;;6.29;53.88
68871;BME280;55906;52.278;6.808;2022-11-20T08:58:29;101112.13;;;6.35;51.15
68871;BME280;55906;52.278;6.808;2022-11-20T09:00:56;101107.00;;;6.19;51.90
68871;BME280;55906;52.278;6.808;2022-11-20T09:03:23;101106.63;;;6.66;51.60
68871;BME280;55906;52.278;6.808;2022-11-20T09:05:57;101095.09;;;7.01;51.30
68871;BME280;55906;52.278;6.808;2022-11-20T09:08:24;101091.94;;;7.09;49.34
68871;BME280;55906;52.278;6.808;2022-11-20T09:10:51;101096.72;;;7.19;50.17
68871;BME280;55906;52.278;6.808;2022-11-20T09:13:19;101088.81;;;7.17;47.72
68871;BME280;55906;52.278;6.808;2022-11-20T09:15:46;101087.13;;;6.98;47.98
68871;BME280;55906;52.278;6.808;2022-11-20T09:18:13;101077.34;;;7.34;48.64
68871;BME280;55906;52.278;6.808;2022-11-20T09:20:39;101068.50;;;7.95;48.34
68871;BME280;55906;52.278;6.808;2022-11-20T09:23:06;101064.66;;;8.54;48.12
68871;BME280;55906;52.278;6.808;2022-11-20T09:25:33;101057.94;;;9.10;47.96
68871;BME280;55906;52.278;6.808;2022-11-20T09:27:59;101065.81;;;9.10;47.41
68871;BME280;55906;52.278;6.808;2022-11-20T09:30:28;101063.88;;;9.04;47.41
68871;BME280;55906;52.278;6.808;2022-11-20T09:32:54;101066.31;;;8.99;47.15
68871;BME280;55906;52.278;6.808;2022-11-20T09:35:21;101062.81;;;8.99;46.93
68871;BME280;55906;52.278;6.808;2022-11-20T09:37:48;101049.81;;;8.78;44.61
68871;BME280;55906;52.278;6.808;2022-11-20T09:40:19;101061.75;;;9.18;44.73
68871;BME280;55906;52.278;6.808;2022-11-20T09:42:54;101057.63;;;8.77;43.44
68871;BME280;55906;52.278;6.808;2022-11-20T09:45:30;101057.38;;;9.18;44.72
68871;BME280;55906;52.278;6.808;2022-11-20T09:48:10;101053.94;;;8.95;43.67
68871;BME280;55906;52.278;6.808;2022-11-20T09:50:43;101045.03;;;9.41;44.03
68871;BME280;55906;52.278;6.808;2022-11-20T09:53:16;101044.50;;;10.07;42.72
68871;BME280;55906;52.278;6.808;2022-11-20T09:55:47;101051.91;;;9.91;42.02
68871;BME280;55906;52.278;6.808;2022-11-20T09:58:19;101044.94;;;10.20;42.80
68871;BME280;55906;52.278;6.808;2022-11-20T10:00:51;101036.66;;;10.65;41.38
68871;BME280;55906;52.278;6.808;2022-11-20T10:03:29;101039.22;;;11.28;40.30
68871;BME280;55906;52.278;6.808;2022-11-20T10:06:02;101024.09;;;11.21;39.58
68871;BME280;55906;52.278;6.808;2022-11-20T10:08:37;101023.53;;;11.33;40.01
68871;BME280;55906;52.278;6.808;2022-11-20T10:11:13;101025.59;;;11.79;39.11
68871;BME280;55906;52.278;6.808;2022-11-20T10:13:49;101022.16;;;12.22;38.72
68871;BME280;55906;52.278;6.808;2022-11-20T10:16:38;101018.06;;;12.36;38.21
68871;BME280;55906;52.278;6.808;2022-11-20T10:19:18;101018.50;;;12.58;37.14
68871;BME280;55906;52.278;6.808;2022-11-20T10:21:58;101007.28;;;13.14;36.51
68871;BME280;55906;52.278;6.808;2022-11-20T10:24:41;101005.84;;;12.85;36.62
68871;BME280;55906;52.278;6.808;2022-11-20T10:27:21;101008.06;;;13.07;35.73
68871;BME280;55906;52.278;6.808;2022-11-20T10:30:00;100992.75;;;13.95;35.94
68871;BME280;55906;52.278;6.808;2022-11-20T10:32:33;100991.22;;;14.13;33.86
68871;BME280;55906;52.278;6.808;2022-11-20T10:35:05;100986.06;;;14.23;34.16
68871;BME280;55906;52.278;6.808;2022-11-20T10:37:40;100984.09;;;14.75;33.44
68871;BME280;55906;52.278;6.808;2022-11-20T10:40:20;100983.41;;;14.22;33.74
68871;BME280;55906;52.278;6.808;2022-11-20T10:42:51;100980.63;;;14.13;33.38
68871;BME280;55906;52.278;6.808;2022-11-20T10:45:31;100978.84;;;14.80;32.40
68871;BME280;55906;52.278;6.808;2022-11-20T10:48:11;100983.78;;;15.38;31.68
68871;BME280;55906;52.278;6.808;2022-11-20T10:50:47;100972.31;;;15.38;31.05
68871;BME280;55906;52.278;6.808;2022-11-20T10:53:26;100972.84;;;14.25;32.30
68871;BME280;55906;52.278;6.808;2022-11-20T10:56:00;100975.69;;;13.75;33.01
68871;BME280;55906;52.278;6.808;2022-11-20T10:58:38;100974.13;;;13.30;33.92
68871;BME280;55906;52.278;6.808;2022-11-20T11:01:14;100971.78;;;12.52;34.40
68871;BME280;55906;52.278;6.808;2022-11-20T11:03:42;100981.19;;;12.38;34.84
68871;BME280;55906;52.278;6.808;2022-11-20T11:06:14;100969.59;;;11.89;34.88
68871;BME280;55906;52.278;6.808;2022-11-20T11:08:44;100969.88;;;11.29;36.10
68871;BME280;55906;52.278;6.808;2022-11-20T11:11:21;100970.41;;;10.48;36.97
68871;BME280;55906;52.278;6.808;2022-11-20T11:13:48;100970.28;;;10.44;38.04
68871;BME280;55906;52.278;6.808;2022-11-20T11:16:23;100964.88;;;9.81;38.72
68871;BME280;55906;52.278;6.808;2022-11-20T11:18:51;100970.97;;;9.51;39.54
68871;BME280;55906;52.278;6.808;2022-11-20T11:21:29;100968.50;;;9.29;40.69
68871;BME280;55906;52.278;6.808;2022-11-20T11:24:00;100964.38;;;9.10;41.07
68871;BME280;55906;52.278;6.808;2022-11-20T11:26:27;100969.94;;;8.94;41.14
68871;BME280;55906;52.278;6.808;2022-11-20T11:28:55;100971.97;;;8.52;42.77
68871;BME280;55906;52.278;6.808;2022-11-20T11:31:24;100966.25;;;8.63;42.37
68871;BME280;55906;52.278;6.808;2022-11-20T11:34:03;100959.72;;;8.28;43.96
68871;BME280;55906;52.278;6.808;2022-11-20T11:36:30;100961.25;;;8.46;43.51
68871;BME280;55906;52.278;6.808;2022-11-20T11:38:57;100948.38;;;8.52;43.51
68871;BME280;55906;52.278;6.808;2022-11-20T11:41:28;100944.16;;;8.57;44.66
68871;BME280;55906;52.278;6.808;2022-11-20T11:44:00;100941.16;;;8.97;44.18
68871;BME280;55906;52.278;6.808;2022-11-20T11:46:52;100937.44;;;9.16;44.33
68871;BME280;55906;52.278;6.808;2022-11-20T11:49:21;100930.94;;;9.05;45.19
68871;BME280;55906;52.278;6.808;2022-11-20T11:52:00;100920.03;;;8.92;45.89
68871;BME280;55906;52.278;6.808;2022-11-20T11:54:33;100917.44;;;9.19;45.75
68871;BME280;55906;52.278;6.808;2022-11-20T11:57:05;100908.00;;;9.83;44.89
68871;BME280;55906;52.278;6.808;2022-11-20T11:59:44;100911.94;;;10.27;44.47
68871;BME280;55906;52.278;6.808;2022-11-20T12:02:25;100911.50;;;10.75;44.22
68871;BME280;55906;52.278;6.808;2022-11-20T12:04:58;100903.06;;;11.24;42.93
68871;BME280;55906;52.278;6.808;2022-11-20T12:07:38;100903.81;;;11.58;42.54
68871;BME280;55906;52.278;6.808;2022-11-20T12:10:14;100895.03;;;11.95;41.95
68871;BME280;55906;52.278;6.808;2022-11-20T12:12:44;100897.59;;;12.35;41.76
68871;BME280;55906;52.278;6.808;2022-11-20T12:15:19;100886.31;;;12.44;40.89
68871;BME280;55906;52.278;6.808;2022-11-20T12:17:47;100889.66;;;11.52;43.25
68871;BME280;55906;52.278;6.808;2022-11-20T12:20:15;100888.03;;;11.20;43.54
68871;BME280;55906;52.278;6.808;2022-11-20T12:22:48;100875.16;;;10.60;43.23
68871;BME280;55906;52.278;6.808;2022-11-20T12:25:21;100884.59;;;9.90;45.57
68871;BME280;55906;52.278;6.808;2022-11-20T12:28:08;100875.06;;;9.64;46.17
68871;BME280;55906;52.278;6.808;2022-11-20T12:30:45;100882.56;;;9.23;46.34
68871;BME280;55906;52.278;6.808;2022-11-20T12:33:45;100880.81;;;8.97;46.87
68871;BME280;55906;52.278;6.808;2022-11-20T12:36:21;100888.50;;;8.91;46.74
68871;BME280;55906;52.278;6.808;2022-11-20T12:39:16;100886.75;;;8.39;48.26
68871;BME280;55906;52.278;6.808;2022-11-20T12:41:58;100874.47;;;8.14;48.95
68871;BME280;55906;52.278;6.808;2022-11-20T12:45:05;100876.03;;;8.09;48.83
68871;BME280;55906;52.278;6.808;2022-11-20T12:47:56;100865.88;;;7.70;49.58
68871;BME280;55906;52.278;6.808;2022-11-20T12:50:32;100861.25;;;7.63;50.95
68871;BME280;55906;52.278;6.808;2022-11-20T12:53:07;100860.91;;;7.54;49.98
68871;BME280;55906;52.278;6.808;2022-11-20T12:55:45;100854.25;;;7.40;50.52
68871;BME280;55906;52.278;6.808;2022-11-20T12:58:19;100844.63;;;7.39;51.04
68871;BME280;55906;52.278;6.808;2022-11-20T13:00:55;100848.06;;;7.16;51.50
68871;BME280;55906;52.278;6.808;2022-11-20T13:03:36;100839.63;;;7.23;52.74
68871;BME280;55906;52.278;6.808;2022-11-20T13:06:10;100833.56;;;7.24;53.19